Time;durP1;ratioP1;P1;durP2;ratioP2;P2;SDS_P1;SDS_P2;PMS_P1;PMS_P2;Temp;Humidity;BMP_temperature;BMP_pressure;BME280_temperature;BME280_humidity;BME280_pressure;Samples;Min_cycle;Max_cycle;Signal;HPM_P1;HPM_P2
2022/06/28 00:00:36;;;;;;;22.40;12.17;;;;;;;20.37;98.12;94416.47;5044580;28;20245;-72
2022/06/28 00:03:20;;;;;;;18.70;13.43;;;;;;;19.69;100.00;94423.44;5050462;28;20221;-72
2022/06/28 00:06:04;;;;;;;19.03;13.93;;;;;;;20.15;100.00;94435.41;5041340;28;20662;-74
2022/06/28 00:08:48;;;;;;;21.00;13.67;;;;;;;20.60;100.00;94438.09;5048998;28;20233;-74
2022/06/28 00:11:32;;;;;;;20.40;14.47;;;;;;;20.04;100.00;94442.06;5040697;28;21253;-74
2022/06/28 00:17:20;;;;;;;23.50;15.23;;;;;;;20.35;100.00;94433.50;5050073;28;20693;-73
2022/06/28 00:20:05;;;;;;;21.17;14.13;;;;;;;20.21;100.00;94421.47;5059102;28;20247;-73
2022/06/28 00:22:49;;;;;;;18.47;13.70;;;;;;;20.61;100.00;94433.16;5045598;28;20205;-72
2022/06/28 00:25:33;;;;;;;20.43;14.17;;;;;;;20.34;100.00;94434.88;5049415;28;20236;-72
2022/06/28 00:28:17;;;;;;;22.03;14.17;;;;;;;20.45;100.00;94442.44;5049707;28;20240;-71
2022/06/28 00:31:03;;;;;;;20.10;14.37;;;;;;;20.73;100.00;94439.34;5049213;28;20628;-71
2022/06/28 00:33:47;;;;;;;23.73;14.70;;;;;;;20.51;100.00;94454.09;5036423;28;20693;-70
2022/06/28 00:36:32;;;;;;;21.23;13.87;;;;;;;20.21;100.00;94444.22;5038328;28;20698;-70
2022/06/28 00:39:16;;;;;;;19.67;13.87;;;;;;;20.27;100.00;94441.66;5049730;28;20217;-69
2022/06/28 00:42:01;;;;;;;17.47;11.97;;;;;;;20.14;100.00;94448.19;5043453;28;20723;-67
2022/06/28 00:44:46;;;;;;;17.23;12.00;;;;;;;20.00;100.00;94444.69;5048339;28;20237;-67
2022/06/28 00:47:30;;;;;;;22.87;12.47;;;;;;;20.46;100.00;94440.34;5050355;28;20276;-67
2022/06/28 00:50:16;;;;;;;17.97;12.23;;;;;;;20.29;100.00;94443.84;5045601;28;20205;-67
2022/06/28 00:53:01;;;;;;;19.67;12.83;;;;;;;20.08;100.00;94448.66;5047607;28;20206;-67
2022/06/28 00:55:46;;;;;;;19.63;14.20;;;;;;;20.74;100.00;94449.38;5051186;28;20209;-66
2022/06/28 00:58:30;;;;;;;17.93;12.97;;;;;;;20.71;100.00;94453.50;5047280;28;20336;-66
2022/06/28 01:01:15;;;;;;;22.47;14.23;;;;;;;20.64;100.00;94455.34;5049428;28;20221;-66
2022/06/28 01:03:59;;;;;;;18.27;13.33;;;;;;;20.46;100.00;94454.56;5052681;28;20267;-66
2022/06/28 01:06:44;;;;;;;18.97;12.20;;;;;;;19.87;100.00;94459.78;5053300;28;20587;-66
2022/06/28 01:09:28;;;;;;;18.23;12.43;;;;;;;20.31;100.00;94458.16;5051157;28;20289;-65
2022/06/28 01:12:13;;;;;;;31.70;14.77;;;;;;;20.88;100.00;94462.06;5051479;28;20694;-66
2022/06/28 01:15:00;;;;;;;21.07;14.03;;;;;;;20.85;100.00;94465.50;5051710;28;20937;-65
2022/06/28 01:18:10;;;;;;;24.40;14.27;;;;;;;20.68;100.00;94466.16;5052339;28;20213;-66
2022/06/28 01:21:02;;;;;;;23.53;14.93;;;;;;;20.79;100.00;94465.22;5043417;28;20226;-65
2022/06/28 01:23:54;;;;;;;30.80;16.23;;;;;;;20.93;100.00;94466.53;5057183;28;20204;-65
2022/06/28 01:26:58;;;;;;;32.83;16.90;;;;;;;20.94;100.00;94462.31;5048194;28;20316;-65
2022/06/28 01:29:42;;;;;;;24.43;15.40;;;;;;;20.45;100.00;94473.78;5052328;28;20233;-65
2022/06/28 01:32:52;;;;;;;27.60;16.77;;;;;;;20.35;100.00;94473.34;5052930;28;20289;-65
2022/06/28 01:35:37;;;;;;;28.57;15.37;;;;;;;20.28;100.00;94471.56;5043019;28;20197;-65
2022/06/28 01:38:22;;;;;;;26.97;14.13;;;;;;;20.55;100.00;94477.03;5053239;28;20583;-65
2022/06/28 01:41:08;;;;;;;20.53;13.77;;;;;;;20.47;100.00;94488.09;5044944;28;20248;-64
2022/06/28 01:43:52;;;;;;;20.97;14.43;;;;;;;20.37;100.00;94487.63;5053225;28;20205;-64
2022/06/28 01:46:38;;;;;;;21.70;14.03;;;;;;;20.28;100.00;94491.50;5046527;28;20367;-64
2022/06/28 01:49:27;;;;;;;25.50;15.20;;;;;;;20.25;100.00;94494.88;5048400;28;20593;-65
2022/06/28 01:52:11;;;;;;;20.70;12.97;;;;;;;20.50;100.00;94497.44;5052362;28;20694;-64
2022/06/28 01:54:55;;;;;;;21.07;12.53;;;;;;;20.53;100.00;94496.16;5046067;28;20214;-64
2022/06/28 01:57:40;;;;;;;20.77;12.63;;;;;;;20.22;100.00;94496.91;5049049;28;20319;-64
2022/06/28 02:00:24;;;;;;;24.73;13.20;;;;;;;20.52;100.00;94480.47;5044282;28;20670;-64
2022/06/28 02:03:11;;;;;;;19.70;11.13;;;;;;;20.36;100.00;94483.34;5046420;28;20220;-64
2022/06/28 02:06:14;;;;;;;16.73;10.13;;;;;;;20.61;100.00;94490.09;5051381;28;20208;-64
2022/06/28 02:09:00;;;;;;;22.63;11.00;;;;;;;20.77;100.00;94502.16;5048549;28;20251;-64
2022/06/28 02:11:53;;;;;;;18.20;10.03;;;;;;;20.82;100.00;94498.09;5050161;28;20206;-64
2022/06/28 02:14:42;;;;;;;19.93;11.10;;;;;;;20.27;100.00;94498.56;5047518;28;20221;-64
2022/06/28 02:17:26;;;;;;;16.07;10.43;;;;;;;20.58;100.00;94492.84;5037351;28;20561;-64
2022/06/28 02:20:12;;;;;;;21.07;11.63;;;;;;;20.45;100.00;94490.84;5050991;28;20640;-64
2022/06/28 02:22:57;;;;;;;14.37;9.90;;;;;;;20.49;100.00;94496.72;5050677;28;20194;-63
2022/06/28 02:25:42;;;;;;;24.57;12.10;;;;;;;20.70;100.00;94486.19;5046471;28;20260;-64
2022/06/28 02:28:26;;;;;;;22.40;11.43;;;;;;;20.64;100.00;94485.94;5047275;28;20263;-63
2022/06/28 02:31:14;;;;;;;15.03;10.20;;;;;;;20.57;100.00;94485.69;5046592;28;20244;-64
2022/06/28 02:33:59;;;;;;;12.33;8.63;;;;;;;20.60;100.00;94483.66;5047241;28;20585;-64
2022/06/28 02:42:57;;;;;;;23.17;9.87;;;;;;;20.63;100.00;94487.31;5043838;28;20805;-64
2022/06/28 02:45:42;;;;;;;30.60;10.60;;;;;;;20.79;100.00;94488.75;5045569;28;20289;-64
2022/06/28 02:48:26;;;;;;;20.80;10.50;;;;;;;20.77;100.00;94493.63;5044863;28;20634;-64
2022/06/28 02:51:10;;;;;;;21.33;9.73;;;;;;;20.71;100.00;94488.41;5049750;28;20260;-64
2022/06/28 02:53:55;;;;;;;32.33;12.37;;;;;;;20.85;100.00;94496.81;5051817;28;20202;-64
2022/06/28 02:56:41;;;;;;;21.33;9.47;;;;;;;20.71;100.00;94504.75;5050682;28;20201;-64
2022/06/28 02:59:26;;;;;;;25.20;10.23;;;;;;;20.78;100.00;94500.78;5043814;28;20245;-64
2022/06/28 03:02:10;;;;;;;14.67;9.33;;;;;;;20.91;100.00;94505.63;5051286;28;20311;-64
2022/06/28 03:04:54;;;;;;;12.83;8.03;;;;;;;20.59;100.00;94504.97;5051778;28;20236;-64
2022/06/28 03:07:39;;;;;;;15.00;7.67;;;;;;;20.66;100.00;94509.56;5049101;28;20303;-64
2022/06/28 03:10:23;;;;;;;26.80;10.70;;;;;;;20.74;100.00;94509.88;5050151;28;20320;-63
2022/06/28 03:13:07;;;;;;;15.23;9.90;;;;;;;20.76;100.00;94514.94;5046387;28;20292;-64
2022/06/28 03:15:52;;;;;;;12.67;9.30;;;;;;;20.86;100.00;94515.38;5051362;28;20198;-64
2022/06/28 03:18:35;;;;;;;13.73;9.07;;;;;;;20.75;100.00;94522.00;5045425;28;20209;-64
2022/06/28 03:21:19;;;;;;;19.97;10.77;;;;;;;20.76;100.00;94529.19;5044733;28;20297;-63
2022/06/28 03:24:03;;;;;;;22.60;10.90;;;;;;;20.78;100.00;94520.72;5052157;28;20387;-63
2022/06/28 03:26:48;;;;;;;17.30;10.63;;;;;;;20.97;100.00;94525.81;5047163;28;20205;-64
2022/06/28 03:29:32;;;;;;;21.60;10.27;;;;;;;20.73;100.00;94536.19;5044918;28;20251;-64
2022/06/28 03:32:16;;;;;;;22.73;11.60;;;;;;;20.75;100.00;94539.09;5043443;28;20205;-63
2022/06/28 03:35:00;;;;;;;20.43;10.83;;;;;;;20.96;100.00;94530.06;5049519;28;20348;-64
2022/06/28 03:37:45;;;;;;;18.17;10.10;;;;;;;20.91;100.00;94529.16;5049938;28;20206;-64
2022/06/28 03:40:28;;;;;;;20.30;10.63;;;;;;;20.89;100.00;94523.34;5048190;28;20224;-64
2022/06/28 03:43:13;;;;;;;18.27;10.70;;;;;;;21.09;100.00;94526.31;5044277;28;20631;-64
2022/06/28 03:45:58;;;;;;;22.47;9.97;;;;;;;21.34;100.00;94528.81;5048194;28;20221;-64
2022/06/28 03:48:52;;;;;;;17.53;10.27;;;;;;;21.19;100.00;94523.91;5049412;28;20690;-64
2022/06/28 03:51:47;;;;;;;17.00;9.17;;;;;;;21.20;100.00;94533.19;5048665;28;20197;-64
2022/06/28 03:54:40;;;;;;;20.00;10.07;;;;;;;21.60;100.00;94534.13;5043088;28;20301;-63
2022/06/28 03:57:35;;;;;;;15.13;9.03;;;;;;;21.76;100.00;94529.06;5049872;28;20271;-63
2022/06/28 04:00:19;;;;;;;17.60;8.97;;;;;;;21.88;100.00;94526.66;5049075;28;20220;-63
2022/06/28 04:03:07;;;;;;;16.90;9.23;;;;;;;21.73;100.00;94538.91;5041066;28;20288;-63
2022/06/28 04:05:57;;;;;;;18.30;9.60;;;;;;;21.79;100.00;94539.13;5046993;28;20225;-63
2022/06/28 04:08:41;;;;;;;18.73;8.83;;;;;;;21.63;100.00;94529.94;5049814;28;20228;-64
2022/06/28 04:11:25;;;;;;;13.33;7.67;;;;;;;21.58;100.00;94523.38;5038192;28;20285;-63
2022/06/28 04:14:13;;;;;;;14.23;8.47;;;;;;;21.85;100.00;94532.97;5050207;28;20343;-63
2022/06/28 04:16:58;;;;;;;9.93;6.87;;;;;;;21.77;100.00;94527.66;5048629;28;20666;-64
2022/06/28 04:19:53;;;;;;;13.57;7.63;;;;;;;22.02;100.00;94535.81;5049689;28;20201;-63
2022/06/28 04:22:38;;;;;;;11.63;6.43;;;;;;;22.08;100.00;94532.44;5041659;28;20217;-63
2022/06/28 04:25:22;;;;;;;10.03;7.20;;;;;;;22.15;100.00;94520.63;5049291;28;20216;-63
2022/06/28 04:28:08;;;;;;;8.83;6.43;;;;;;;22.35;100.00;94528.44;5047079;28;20300;-63
2022/06/28 04:30:52;;;;;;;6.03;5.23;;;;;;;21.99;100.00;94519.97;5045649;28;20249;-63
2022/06/28 04:33:37;;;;;;;6.10;5.20;;;;;;;22.46;100.00;94519.63;5048537;28;20201;-63
2022/06/28 04:36:21;;;;;;;15.07;6.00;;;;;;;21.77;100.00;94516.25;5044264;28;20213;-63
2022/06/28 04:39:07;;;;;;;8.43;5.80;;;;;;;21.59;100.00;94526.94;5049414;28;20201;-63
2022/06/28 04:41:56;;;;;;;7.13;5.27;;;;;;;22.18;100.00;94519.28;5046828;28;20288;-63
2022/06/28 04:44:43;;;;;;;13.93;6.67;;;;;;;22.80;100.00;94531.56;5045428;28;20229;-63
2022/06/28 04:47:31;;;;;;;12.97;5.13;;;;;;;22.56;100.00;94527.81;5049243;28;20212;-63
2022/06/28 04:50:15;;;;;;;5.70;5.20;;;;;;;22.00;100.00;94532.88;5047347;28;20229;-63
2022/06/28 04:52:59;;;;;;;9.60;5.53;;;;;;;22.46;100.00;94530.31;5039813;28;20205;-62
2022/06/28 04:55:45;;;;;;;7.63;6.00;;;;;;;22.92;100.00;94517.69;5047498;28;20728;-62
2022/06/28 04:58:29;;;;;;;7.57;5.00;;;;;;;23.14;100.00;94514.88;5044489;28;20205;-63
2022/06/28 05:01:13;;;;;;;6.87;4.40;;;;;;;23.42;100.00;94505.75;5047623;28;20240;-63
2022/06/28 05:03:57;;;;;;;5.00;4.13;;;;;;;22.54;100.00;94494.19;5047822;28;20315;-63
2022/06/28 05:07:19;;;;;;;5.10;4.20;;;;;;;23.38;100.00;94494.91;5046385;28;20268;-63
2022/06/28 05:10:04;;;;;;;7.63;4.73;;;;;;;22.44;100.00;94487.38;5048148;28;20836;-63
2022/06/28 05:12:50;;;;;;;4.73;4.30;;;;;;;23.07;100.00;94472.44;5044076;28;20239;-63
2022/06/28 05:15:34;;;;;;;7.10;4.90;;;;;;;23.03;100.00;94480.84;5048214;28;20208;-63
2022/06/28 05:18:29;;;;;;;8.97;4.40;;;;;;;22.89;100.00;94481.88;5048150;28;20252;-63
2022/06/28 05:21:14;;;;;;;4.50;4.13;;;;;;;23.52;100.00;94483.94;5045979;28;20280;-63
2022/06/28 05:24:00;;;;;;;7.77;4.00;;;;;;;22.58;100.00;94473.59;5052772;28;20664;-63
2022/06/28 05:26:59;;;;;;;5.93;3.97;;;;;;;23.96;100.00;94483.84;5049190;28;20248;-63
2022/06/28 05:29:47;;;;;;;7.67;3.93;;;;;;;24.30;100.00;94467.00;5046669;28;20237;-63
2022/06/28 05:32:32;;;;;;;6.93;3.83;;;;;;;24.02;100.00;94458.25;5037569;28;20198;-63
2022/06/28 05:35:16;;;;;;;4.90;3.90;;;;;;;24.09;100.00;94457.03;5048249;28;20217;-63
2022/06/28 05:38:00;;;;;;;5.90;4.83;;;;;;;23.84;100.00;94449.88;5042608;28;20224;-63
2022/06/28 05:40:45;;;;;;;5.67;5.10;;;;;;;23.74;100.00;94447.44;5044998;28;20233;-63
2022/06/28 05:43:29;;;;;;;5.90;4.93;;;;;;;23.38;100.00;94432.00;5043664;28;20319;-62
2022/06/28 05:46:13;;;;;;;9.03;4.97;;;;;;;23.88;100.00;94438.56;5050415;28;20197;-63
2022/06/28 05:48:58;;;;;;;5.20;4.70;;;;;;;24.01;100.00;94445.38;5052225;28;20589;-63
2022/06/28 05:51:41;;;;;;;5.10;4.70;;;;;;;23.07;74.69;94435.28;5052403;28;20202;-63
2022/06/28 05:54:30;;;;;;;5.77;5.27;;;;;;;24.93;68.47;94440.78;5050058;28;20252;-63
2022/06/28 05:57:14;;;;;;;4.97;4.40;;;;;;;25.89;66.52;94433.06;5052421;28;20240;-63
2022/06/28 05:59:58;;;;;;;8.47;4.40;;;;;;;24.96;63.09;94433.69;5051663;28;20713;-63
2022/06/28 06:02:42;;;;;;;5.30;4.80;;;;;;;25.10;64.33;94425.44;5045816;28;20254;-63
2022/06/28 06:05:26;;;;;;;6.23;4.50;;;;;;;25.87;62.09;94424.38;5051905;28;21798;-63
2022/06/28 06:08:10;;;;;;;6.87;3.77;;;;;;;25.65;61.28;94423.91;5051836;28;20533;-63
2022/06/28 06:10:55;;;;;;;3.40;3.10;;;;;;;24.98;62.05;94413.69;5048493;28;20229;-63
2022/06/28 06:13:39;;;;;;;4.97;3.23;;;;;;;26.15;61.76;94416.38;5051296;28;20201;-63
2022/06/28 06:16:23;;;;;;;5.77;3.73;;;;;;;26.24;59.09;94410.81;5047897;28;20201;-64
2022/06/28 06:19:07;;;;;;;6.03;3.73;;;;;;;25.78;61.58;94408.41;5050247;28;20584;-64
2022/06/28 06:21:51;;;;;;;3.80;3.17;;;;;;;26.11;62.48;94401.19;5048819;28;20311;-63
2022/06/28 06:24:36;;;;;;;6.90;3.67;;;;;;;25.83;58.57;94386.97;5051534;28;20225;-64
2022/06/28 06:27:24;;;;;;;4.10;3.80;;;;;;;25.86;61.30;94397.06;5050028;28;20294;-64
2022/06/28 06:30:09;;;;;;;6.90;4.53;;;;;;;26.33;59.82;94392.31;5048504;28;20209;-64
2022/06/28 06:33:13;;;;;;;5.50;3.80;;;;;;;25.41;61.00;94406.09;5052097;28;20201;-64
2022/06/28 06:36:16;;;;;;;5.47;3.67;;;;;;;25.28;59.58;94402.22;5050508;28;20216;-64
2022/06/28 06:39:02;;;;;;;3.43;3.13;;;;;;;25.49;59.54;94380.47;5048320;28;20217;-64
2022/06/28 06:41:47;;;;;;;4.37;3.30;;;;;;;24.49;61.06;94375.16;5044869;28;20221;-64
2022/06/28 06:44:32;;;;;;;4.27;3.43;;;;;;;25.22;59.98;94368.38;5045807;28;20216;-64
2022/06/28 06:47:19;;;;;;;3.43;3.23;;;;;;;24.68;60.04;94367.03;5045288;28;20213;-65
2022/06/28 06:50:08;;;;;;;3.80;3.50;;;;;;;24.34;60.15;94353.25;5046429;28;20252;-66
2022/06/28 06:52:52;;;;;;;3.83;3.30;;;;;;;25.59;59.41;94349.88;5052599;28;20209;-65
2022/06/28 06:55:36;;;;;;;3.50;3.20;;;;;;;25.21;56.96;94355.44;5057195;28;20205;-65
2022/06/28 06:58:20;;;;;;;4.70;3.30;;;;;;;25.74;56.81;94350.88;5046882;28;20217;-66
2022/06/28 07:01:04;;;;;;;3.17;2.73;;;;;;;26.57;54.54;94358.28;5051125;28;20220;-65
2022/06/28 07:03:49;;;;;;;4.13;2.67;;;;;;;27.30;54.86;94376.78;5039334;28;20230;-66
2022/06/28 07:06:34;;;;;;;2.50;2.20;;;;;;;25.85;54.22;94384.16;5049605;28;20201;-66
2022/06/28 07:09:18;;;;;;;5.97;1.90;;;;;;;25.66;56.56;94380.16;5045397;28;20806;-65
2022/06/28 07:12:05;;;;;;;3.88;1.80;;;;;;;26.33;53.83;94372.94;5048765;28;20697;-66
2022/06/28 07:14:49;;;;;;;2.47;2.08;;;;;;;25.98;53.81;94377.25;5040264;28;20772;-66
2022/06/28 07:17:35;;;;;;;6.72;2.45;;;;;;;26.66;52.70;94373.56;5046676;28;20220;-66
2022/06/28 07:20:19;;;;;;;3.83;1.90;;;;;;;27.14;49.87;94385.19;5045168;28;20599;-66
2022/06/28 07:23:03;;;;;;;3.63;1.63;;;;;;;27.34;50.86;94397.03;5042023;28;20210;-66
2022/06/28 07:25:47;;;;;;;2.85;1.52;;;;;;;25.94;52.64;94411.63;5049621;28;20201;-67
2022/06/28 07:28:31;;;;;;;3.45;1.77;;;;;;;27.00;53.90;94417.31;5039163;28;20209;-66
2022/06/28 07:31:15;;;;;;;1.80;1.70;;;;;;;28.00;49.11;94434.00;5046979;28;20221;-67
2022/06/28 07:34:00;;;;;;;3.00;1.67;;;;;;;27.40;50.68;94445.31;5046827;28;20233;-66
2022/06/28 07:36:45;;;;;;;1.92;1.45;;;;;;;29.06;45.03;94456.94;5046349;28;20702;-66
2022/06/28 07:39:30;;;;;;;2.00;1.58;;;;;;;29.71;42.82;94471.97;5041246;28;20717;-66
2022/06/28 07:42:33;;;;;;;5.15;1.40;;;;;;;30.17;43.77;94468.72;5036941;28;20241;-64
2022/06/28 07:45:17;;;;;;;1.60;1.50;;;;;;;29.17;44.75;94458.50;5049460;28;20309;-64
2022/06/28 07:48:04;;;;;;;2.40;1.58;;;;;;;29.18;45.69;94454.19;5047622;28;20217;-67
2022/06/28 07:53:51;;;;;;;4.32;1.40;;;;;;;29.93;42.41;94439.66;5048473;28;20232;-68
2022/06/28 07:56:44;;;;;;;2.90;1.70;;;;;;;28.85;46.59;94435.81;5031817;28;20340;-67
2022/06/28 07:59:29;;;;;;;1.80;1.20;;;;;;;29.06;44.18;94436.75;5037314;28;20328;-66
2022/06/28 08:02:15;;;;;;;1.48;1.38;;;;;;;29.26;45.49;94428.25;5043598;28;20229;-67
2022/06/28 08:05:08;;;;;;;3.83;1.30;;;;;;;29.90;43.52;94430.22;5046323;28;20578;-67
2022/06/28 08:07:54;;;;;;;3.67;1.50;;;;;;;29.85;42.55;94417.19;5044322;28;20201;-67
2022/06/28 08:10:38;;;;;;;1.20;1.10;;;;;;;30.22;40.87;94411.63;5044043;28;20201;-67
2022/06/28 08:13:26;;;;;;;1.35;1.20;;;;;;;31.01;40.72;94426.38;5036613;28;20210;-67
2022/06/28 08:16:11;;;;;;;1.88;1.30;;;;;;;29.69;42.25;94423.56;5044099;28;20698;-66
2022/06/28 08:18:55;;;;;;;1.75;1.38;;;;;;;29.96;41.18;94415.81;5046202;28;20256;-67
2022/06/28 08:21:49;;;;;;;1.60;1.10;;;;;;;31.85;39.56;94413.44;5044947;28;20221;-67
2022/06/28 08:24:33;;;;;;;2.03;1.00;;;;;;;31.62;38.80;94404.75;5037269;28;20216;-67
2022/06/28 08:27:17;;;;;;;6.97;1.45;;;;;;;30.84;38.63;94408.25;5046268;28;20280;-67
2022/06/28 08:30:01;;;;;;;2.03;1.20;;;;;;;32.70;36.92;94401.59;5045148;28;20208;-67
2022/06/28 08:32:45;;;;;;;1.42;0.88;;;;;;;32.10;37.81;94394.50;5045237;28;20256;-65
2022/06/28 08:35:29;;;;;;;2.67;1.00;;;;;;;31.23;35.93;94391.72;5045222;28;20206;-65
2022/06/28 08:38:14;;;;;;;1.63;1.20;;;;;;;31.67;36.70;94388.06;5047253;28;20247;-65
2022/06/28 08:41:00;;;;;;;1.85;1.20;;;;;;;31.65;36.81;94380.13;5043795;28;20237;-65
2022/06/28 08:43:44;;;;;;;3.35;1.40;;;;;;;31.54;36.69;94389.53;5041729;28;20271;-65
2022/06/28 08:46:31;;;;;;;2.28;1.30;;;;;;;32.00;37.03;94394.53;5045217;28;20246;-65
2022/06/28 08:49:24;;;;;;;2.30;1.40;;;;;;;32.96;35.41;94404.31;5048300;28;20336;-65
2022/06/28 08:52:09;;;;;;;3.00;1.50;;;;;;;33.04;33.94;94410.09;5046365;28;20274;-65
2022/06/28 08:54:53;;;;;;;1.92;1.80;;;;;;;30.52;39.58;94392.25;5046540;28;20236;-65
2022/06/28 08:57:39;;;;;;;2.00;1.55;;;;;;;30.84;38.29;94393.78;5044724;28;20221;-65
2022/06/28 09:00:23;;;;;;;6.43;1.92;;;;;;;30.13;38.86;94388.44;5049862;28;20186;-65
2022/06/28 09:03:07;;;;;;;1.70;1.60;;;;;;;30.62;39.11;94391.56;5049328;28;20228;-65
2022/06/28 09:05:52;;;;;;;2.83;1.35;;;;;;;32.30;37.25;94382.88;5043182;28;20241;-66
2022/06/28 09:08:36;;;;;;;6.75;1.95;;;;;;;31.46;37.08;94372.88;5048265;28;20194;-65
2022/06/28 09:11:19;;;;;;;4.40;2.00;;;;;;;31.16;39.27;94367.81;5043651;28;20686;-65
2022/06/28 09:14:19;;;;;;;2.38;1.60;;;;;;;33.12;35.54;94375.19;5047093;28;20277;-65
2022/06/28 09:17:21;;;;;;;3.47;1.83;;;;;;;32.80;36.01;94363.78;5052130;28;20252;-65
2022/06/28 09:20:09;;;;;;;3.22;1.98;;;;;;;32.05;36.06;94367.69;5053954;28;20232;-66
2022/06/28 09:22:53;;;;;;;2.85;1.90;;;;;;;32.60;37.23;94358.78;5048306;28;20222;-66
2022/06/28 09:25:38;;;;;;;1.60;1.50;;;;;;;33.07;34.99;94361.44;5054375;28;20616;-67
2022/06/28 09:28:28;;;;;;;4.95;1.77;;;;;;;33.71;34.34;94360.22;5048768;28;20291;-66
2022/06/28 09:31:30;;;;;;;3.17;1.70;;;;;;;35.36;31.29;94356.72;5050750;28;20213;-67
2022/06/28 09:34:15;;;;;;;4.30;2.20;;;;;;;32.96;34.68;94357.88;5052206;28;20753;-66
2022/06/28 09:36:58;;;;;;;2.38;1.90;;;;;;;33.90;34.38;94358.56;5047040;28;20308;-66
2022/06/28 09:39:47;;;;;;;3.95;2.33;;;;;;;34.41;33.16;94346.38;5049213;28;21110;-66
2022/06/28 09:42:31;;;;;;;3.35;2.20;;;;;;;33.53;33.74;94337.09;5048310;28;20248;-67
2022/06/28 09:45:16;;;;;;;2.95;2.60;;;;;;;35.46;31.66;94335.41;5051743;28;20220;-66
2022/06/28 09:48:01;;;;;;;3.85;2.45;;;;;;;33.99;33.86;94330.13;5050806;28;20251;-67
2022/06/28 09:50:45;;;;;;;2.53;2.30;;;;;;;35.01;32.37;94323.72;5052272;28;20233;-66
2022/06/28 09:53:31;;;;;;;2.70;2.30;;;;;;;32.27;36.15;94303.13;5052987;28;20221;-66
2022/06/28 09:56:16;;;;;;;3.17;2.40;;;;;;;32.58;35.35;94305.84;5050749;28;20702;-66
2022/06/28 09:59:00;;;;;;;4.78;2.35;;;;;;;31.50;36.47;94294.63;5049047;28;20194;-66
2022/06/28 10:01:45;;;;;;;3.33;2.17;;;;;;;33.08;34.87;94290.28;5049201;28;20629;-67
2022/06/28 10:04:29;;;;;;;2.33;1.98;;;;;;;32.75;35.26;94295.59;5052863;28;20286;-67
2022/06/28 10:07:14;;;;;;;3.00;2.50;;;;;;;32.34;36.93;94298.72;5053572;28;20200;-67
2022/06/28 10:09:58;;;;;;;1.98;1.88;;;;;;;32.92;35.52;94317.97;5049687;28;20204;-67
2022/06/28 10:15:56;;;;;;;3.70;2.30;;;;;;;32.06;35.66;94316.22;5045194;28;20296;-67
2022/06/28 10:18:41;;;;;;;4.32;1.80;;;;;;;32.49;35.32;94308.81;5047636;28;20213;-67
2022/06/28 10:22:07;;;;;;;3.78;2.25;;;;;;;31.58;37.00;94300.41;5047151;28;20297;-67
2022/06/28 10:25:00;;;;;;;1.58;1.48;;;;;;;34.08;33.55;94308.91;5056561;28;20224;-67
2022/06/28 10:27:49;;;;;;;1.92;1.73;;;;;;;33.96;32.23;94290.88;5049084;28;21040;-67
2022/06/28 10:30:33;;;;;;;1.90;1.42;;;;;;;33.76;32.87;94294.03;5050840;28;20248;-67
2022/06/28 10:33:40;;;;;;;4.13;2.03;;;;;;;32.37;34.60;94288.56;5052500;28;20201;-67
2022/06/28 10:36:28;;;;;;;2.22;1.83;;;;;;;33.37;33.56;94287.88;5050287;28;20225;-67
2022/06/28 10:39:18;;;;;;;3.83;1.80;;;;;;;31.60;36.26;94291.72;5051375;28;20221;-66
2022/06/28 10:42:08;;;;;;;4.53;2.00;;;;;;;32.68;34.62;94289.13;5047331;28;20263;-66
2022/06/28 10:44:52;;;;;;;2.38;1.48;;;;;;;31.59;36.24;94289.59;5051385;28;20190;-66
2022/06/28 10:47:36;;;;;;;5.18;1.52;;;;;;;32.79;34.96;94296.28;5052286;28;20670;-66
2022/06/28 10:50:20;;;;;;;2.70;1.35;;;;;;;31.54;36.84;94288.13;5050454;28;20252;-66
2022/06/28 10:53:04;;;;;;;1.58;1.48;;;;;;;31.74;35.83;94283.00;5051974;28;20340;-66
2022/06/28 10:56:10;;;;;;;8.07;1.98;;;;;;;31.30;36.03;94277.28;5051679;28;20213;-66
2022/06/28 10:59:05;;;;;;;2.53;1.63;;;;;;;31.55;36.70;94261.31;5046100;28;20674;-66
2022/06/28 11:01:49;;;;;;;3.30;1.98;;;;;;;31.31;36.13;94261.38;5047622;28;20657;-66
2022/06/28 11:04:33;;;;;;;1.98;1.77;;;;;;;30.94;37.09;94255.59;5047751;28;20599;-66
2022/06/28 11:07:23;;;;;;;2.75;1.70;;;;;;;31.86;36.00;94258.31;5052337;28;20288;-66
2022/06/28 11:10:11;;;;;;;2.72;1.45;;;;;;;30.69;37.36;94245.47;5044993;28;20214;-66
2022/06/28 11:13:21;;;;;;;2.15;1.63;;;;;;;32.05;35.80;94239.41;5042603;28;20201;-66
2022/06/28 11:16:06;;;;;;;1.67;1.58;;;;;;;30.51;37.98;94251.25;5048386;28;20228;-66
2022/06/28 11:19:06;;;;;;;4.47;1.80;;;;;;;30.89;38.25;94245.47;5050531;28;20197;-66
2022/06/28 11:21:54;;;;;;;6.32;1.98;;;;;;;31.21;37.42;94241.13;5045542;28;20226;-66
2022/06/28 11:24:44;;;;;;;5.32;1.77;;;;;;;30.29;38.73;94249.03;5055910;28;20248;-66
2022/06/28 11:27:28;;;;;;;2.47;1.40;;;;;;;29.44;40.70;94262.41;5044256;28;20213;-66
2022/06/28 11:30:14;;;;;;;1.88;1.42;;;;;;;30.19;39.55;94257.66;5046053;28;20340;-66
2022/06/28 11:32:59;;;;;;;7.60;1.60;;;;;;;30.23;39.89;94256.97;5046523;28;20678;-66
2022/06/28 11:35:44;;;;;;;3.53;1.80;;;;;;;29.60;40.63;94245.16;5050149;28;20320;-66
2022/06/28 11:38:28;;;;;;;2.75;1.90;;;;;;;30.68;38.75;94240.41;5042974;28;20624;-66
2022/06/28 11:41:26;;;;;;;3.08;1.73;;;;;;;29.63;40.28;94235.03;5049646;28;20221;-66
2022/06/28 11:44:11;;;;;;;2.25;1.73;;;;;;;30.05;39.81;94223.69;5045416;28;20241;-66
2022/06/28 11:46:54;;;;;;;3.30;1.50;;;;;;;29.60;40.60;94211.22;5045633;28;20240;-67
2022/06/28 11:49:39;;;;;;;5.07;1.75;;;;;;;30.08;40.62;94216.44;5044617;28;20787;-66
2022/06/28 11:52:23;;;;;;;1.98;1.88;;;;;;;29.08;42.18;94220.31;5045727;28;20224;-66
2022/06/28 11:55:07;;;;;;;1.92;1.80;;;;;;;29.67;41.30;94235.09;5045976;28;20241;-66
2022/06/28 11:58:14;;;;;;;3.70;2.10;;;;;;;29.27;41.77;94250.72;5049639;28;20270;-65
2022/06/28 12:01:05;;;;;;;3.25;2.28;;;;;;;29.10;42.56;94257.84;5047006;28;20194;-65
2022/06/28 12:03:49;;;;;;;4.60;2.10;;;;;;;29.20;41.90;94272.31;5045477;28;20229;-65
2022/06/28 12:06:35;;;;;;;4.13;2.17;;;;;;;28.74;43.04;94280.66;5040807;28;20256;-66
2022/06/28 12:09:19;;;;;;;2.65;2.22;;;;;;;28.33;43.55;94274.47;5050468;28;20236;-65
2022/06/28 12:12:04;;;;;;;2.33;2.00;;;;;;;28.29;43.44;94273.72;5044290;28;20195;-65
2022/06/28 12:14:55;;;;;;;2.17;2.05;;;;;;;28.86;42.35;94280.75;5050157;28;20193;-65
2022/06/28 12:17:48;;;;;;;6.43;2.28;;;;;;;28.47;43.41;94283.25;5049351;28;20317;-65
2022/06/28 12:20:33;;;;;;;3.50;2.25;;;;;;;28.81;43.06;94291.53;5047163;28;20206;-65
2022/06/28 12:23:18;;;;;;;4.72;2.20;;;;;;;29.06;42.81;94298.22;5050232;28;20251;-65
2022/06/28 12:26:02;;;;;;;2.50;2.30;;;;;;;28.49;43.49;94299.88;5049888;28;20251;-65
2022/06/28 12:28:47;;;;;;;2.13;2.03;;;;;;;28.29;44.39;94291.72;5047613;28;20205;-65
2022/06/28 12:31:31;;;;;;;3.85;2.28;;;;;;;27.87;45.61;94277.56;5044692;28;20201;-65
2022/06/28 12:34:15;;;;;;;2.65;2.15;;;;;;;27.74;45.89;94268.03;5050690;28;20209;-65
2022/06/28 12:36:59;;;;;;;2.70;2.42;;;;;;;28.48;45.22;94261.66;5048614;28;20197;-65
2022/06/28 12:39:43;;;;;;;2.72;2.10;;;;;;;28.23;45.88;94277.25;5045806;28;20682;-65
2022/06/28 12:42:29;;;;;;;2.35;2.15;;;;;;;27.61;46.91;94275.06;5044680;28;20298;-65
2022/06/28 12:45:13;;;;;;;2.88;2.30;;;;;;;27.33;48.14;94257.41;5048399;28;20248;-66
2022/06/28 12:47:57;;;;;;;5.43;2.50;;;;;;;27.21;49.16;94245.75;5050474;28;20221;-65
2022/06/28 12:50:41;;;;;;;3.28;2.55;;;;;;;27.09;49.00;94234.78;5049627;28;20228;-66
2022/06/28 12:53:26;;;;;;;4.70;2.60;;;;;;;27.48;48.50;94220.91;5048884;28;20198;-65
2022/06/28 12:56:10;;;;;;;2.58;2.35;;;;;;;27.62;47.20;94207.44;5052019;28;20725;-65
2022/06/28 12:58:58;;;;;;;3.85;2.13;;;;;;;27.36;47.94;94181.19;5051257;28;20252;-65
2022/06/28 13:01:42;;;;;;;6.75;3.47;;;;;;;27.42;50.41;94184.13;5045610;28;20379;-64
2022/06/28 13:04:26;;;;;;;5.32;3.22;;;;;;;27.34;51.74;94181.16;5044110;28;20217;-64
2022/06/28 13:07:10;;;;;;;6.88;3.92;;;;;;;26.52;56.16;94161.31;5049349;28;20569;-65
2022/06/28 13:09:54;;;;;;;6.13;3.97;;;;;;;25.46;59.75;94137.91;5043321;28;20974;-62